createdAt,value
2019-06-01T00:00:36.362Z,99.90
2019-06-01T00:03:06.361Z,99.90
2019-06-01T00:05:35.674Z,99.90
2019-06-01T00:08:05.007Z,99.90
2019-06-01T00:10:34.408Z,99.90
2019-06-01T00:13:03.728Z,99.90
2019-06-01T00:15:33.017Z,99.90
2019-06-01T00:18:02.282Z,99.90
2019-06-01T00:20:31.583Z,99.90
2019-06-01T00:23:00.854Z,99.90
2019-06-01T00:25:30.137Z,99.90
2019-06-01T00:27:59.443Z,99.90
2019-06-01T00:30:28.752Z,99.90
2019-06-01T00:32:58.016Z,99.90
2019-06-01T00:35:27.252Z,99.90
2019-06-01T00:37:56.548Z,99.90
2019-06-01T00:40:25.793Z,99.90
2019-06-01T00:42:55.082Z,99.90
2019-06-01T00:45:24.408Z,99.90
2019-06-01T00:47:53.682Z,99.90
2019-06-01T00:50:22.930Z,99.90
2019-06-01T00:52:53.445Z,99.90
2019-06-01T00:55:22.910Z,99.90
2019-06-01T00:57:52.178Z,99.90
2019-06-01T01:00:21.432Z,99.90
2019-06-01T01:02:52.114Z,99.90
2019-06-01T01:05:23.198Z,99.90
2019-06-01T01:07:53.555Z,99.90
2019-06-01T01:10:23.222Z,99.90
2019-06-01T01:13:10.393Z,99.90
2019-06-01T01:15:39.753Z,99.90
2019-06-01T01:18:09.221Z,99.90
2019-06-01T01:20:38.817Z,99.90
2019-06-01T01:23:08.573Z,99.90
2019-06-01T01:25:37.817Z,99.90
2019-06-01T01:28:07.077Z,99.90
2019-06-01T01:30:36.420Z,99.90
2019-06-01T01:33:05.673Z,99.90
2019-06-01T01:35:34.927Z,99.90
2019-06-01T01:38:04.258Z,99.90
2019-06-01T01:40:33.514Z,99.90
2019-06-01T01:43:02.794Z,99.90
2019-06-01T01:45:32.192Z,99.90
2019-06-01T01:48:01.603Z,99.90
2019-06-01T01:50:30.974Z,99.90
2019-06-01T01:53:00.286Z,99.90
2019-06-01T01:55:29.590Z,99.90
2019-06-01T01:57:59.666Z,99.90
2019-06-01T02:00:44.160Z,99.90
2019-06-01T02:03:13.464Z,99.90
2019-06-01T02:05:42.730Z,99.90
2019-06-01T02:08:12.066Z,99.90
2019-06-01T02:10:41.371Z,99.90
2019-06-01T02:13:10.741Z,99.90
2019-06-01T02:15:41.607Z,99.90
2019-06-01T02:18:11.347Z,99.90
2019-06-01T02:20:40.606Z,99.90
2019-06-01T02:23:09.974Z,99.90
2019-06-01T02:25:39.272Z,99.90
2019-06-01T02:28:08.529Z,99.90
2019-06-01T02:30:37.896Z,99.90
2019-06-01T02:33:07.244Z,99.90
2019-06-01T02:35:36.505Z,99.90
2019-06-01T02:38:06.064Z,99.90
2019-06-01T02:40:35.673Z,99.90
2019-06-01T02:43:06.717Z,99.90
2019-06-01T02:45:36.127Z,99.90
2019-06-01T02:48:06.633Z,99.90
2019-06-01T02:50:36.219Z,99.90
2019-06-01T02:53:06.924Z,99.90
2019-06-01T02:55:36.275Z,99.90
2019-06-01T02:58:06.849Z,99.90
2019-06-01T03:01:11.966Z,99.90
2019-06-01T03:03:42.110Z,99.90
2019-06-01T03:06:14.927Z,99.90
2019-06-01T03:08:49.571Z,99.90
2019-06-01T03:11:22.192Z,99.90
2019-06-01T03:13:55.151Z,99.90
2019-06-01T03:16:28.017Z,99.90
2019-06-01T03:19:01.907Z,99.90
2019-06-01T03:21:33.575Z,99.90
2019-06-01T03:24:08.154Z,99.90
2019-06-01T03:26:43.520Z,99.90
2019-06-01T03:29:20.546Z,99.90
2019-06-01T03:31:49.845Z,99.90
2019-06-01T03:34:19.118Z,99.90
2019-06-01T03:36:48.818Z,99.90
2019-06-01T03:39:18.223Z,99.90
2019-06-01T03:41:47.730Z,99.90
2019-06-01T03:44:17.173Z,99.90
2019-06-01T03:46:46.446Z,99.90
2019-06-01T03:49:15.738Z,99.90
2019-06-01T03:51:44.982Z,99.90
2019-06-01T03:54:14.258Z,99.90
2019-06-01T03:56:43.518Z,99.90
2019-06-01T03:59:12.800Z,99.90
2019-06-01T04:01:42.056Z,99.90
2019-06-01T04:04:11.353Z,99.90
2019-06-01T04:06:40.730Z,99.90
2019-06-01T04:09:10.114Z,99.90
2019-06-01T04:11:39.424Z,99.90
2019-06-01T04:14:09.864Z,99.90
2019-06-01T04:16:42.336Z,99.90
2019-06-01T04:19:12.270Z,99.90
2019-06-01T04:21:41.518Z,99.90
2019-06-01T04:24:10.724Z,99.90
2019-06-01T04:26:40.011Z,99.90
2019-06-01T04:29:10.377Z,99.90
2019-06-01T04:31:39.848Z,99.90
2019-06-01T04:34:09.109Z,99.90
2019-06-01T04:36:38.467Z,99.90
2019-06-01T04:39:09.343Z,99.90
2019-06-01T04:41:38.751Z,99.90
2019-06-01T04:44:08.009Z,99.90
2019-06-01T04:46:37.381Z,99.90
2019-06-01T04:49:06.652Z,99.90
2019-06-01T04:51:35.967Z,99.90
2019-06-01T04:54:05.259Z,99.90
2019-06-01T04:56:34.527Z,99.90
2019-06-01T04:59:04.907Z,99.90
2019-06-01T05:01:34.341Z,99.90
2019-06-01T05:04:04.879Z,99.90
2019-06-01T05:06:34.360Z,99.90
2019-06-01T05:09:05.195Z,99.90
2019-06-01T05:11:34.587Z,99.90
2019-06-01T05:14:03.948Z,99.90
2019-06-01T05:16:33.275Z,99.90
2019-06-01T05:19:02.764Z,99.90
2019-06-01T05:21:32.159Z,99.90
2019-06-01T05:24:01.533Z,99.90
2019-06-01T05:26:30.707Z,99.90
2019-06-01T05:29:00.015Z,99.90
2019-06-01T05:31:29.333Z,99.90
2019-06-01T05:33:58.607Z,99.90
2019-06-01T05:36:27.788Z,99.90
2019-06-01T05:38:57.132Z,99.90
2019-06-01T05:41:26.384Z,99.90
2019-06-01T05:43:55.583Z,99.90
2019-06-01T05:46:24.841Z,99.90
2019-06-01T05:48:54.125Z,99.90
2019-06-01T05:51:23.303Z,99.90
2019-06-01T05:53:52.625Z,99.90
2019-06-01T05:56:22.993Z,99.90
2019-06-01T05:58:52.373Z,99.90
2019-06-01T06:01:22.787Z,99.90
2019-06-01T06:03:52.165Z,99.90
2019-06-01T06:06:22.066Z,99.90
2019-06-01T06:08:51.673Z,99.90
2019-06-01T06:11:21.179Z,99.90
2019-06-01T06:13:50.591Z,99.90
2019-06-01T06:16:20.923Z,99.90
2019-06-01T06:18:51.022Z,99.90
2019-06-01T06:21:20.347Z,99.90
2019-06-01T06:23:49.681Z,99.90
2019-06-01T06:26:20.459Z,99.90
2019-06-01T06:28:49.950Z,99.90
2019-06-01T06:31:19.409Z,99.90
2019-06-01T06:33:56.399Z,99.90
2019-06-01T06:36:19.884Z,99.90
2019-06-01T06:38:49.179Z,99.90
2019-06-01T06:41:18.526Z,99.90
2019-06-01T06:43:47.838Z,99.90
2019-06-01T06:46:17.082Z,99.90
2019-06-01T06:48:46.454Z,99.90
2019-06-01T06:51:15.733Z,99.90
2019-06-01T06:53:45.059Z,99.90
2019-06-01T06:56:14.370Z,99.90
2019-06-01T06:58:43.549Z,99.90
2019-06-01T07:01:12.904Z,99.90
2019-06-01T07:03:42.317Z,99.90
2019-06-01T07:06:11.673Z,99.90
2019-06-01T07:08:40.991Z,99.90
2019-06-01T07:11:12.061Z,99.90
2019-06-01T07:13:41.254Z,99.90
2019-06-01T07:16:10.598Z,99.90
2019-06-01T07:18:39.839Z,99.90
2019-06-01T07:21:09.259Z,99.90
2019-06-01T07:23:38.544Z,99.90
2019-06-01T07:26:07.940Z,99.90
2019-06-01T07:28:37.283Z,99.90
2019-06-01T07:31:06.627Z,99.90
2019-06-01T07:33:35.950Z,99.90
2019-06-01T07:36:05.307Z,99.90
2019-06-01T07:38:34.565Z,99.90
2019-06-01T07:41:03.848Z,99.90
2019-06-01T07:43:33.388Z,99.90
2019-06-01T07:46:02.737Z,99.90
2019-06-01T07:48:33.313Z,99.90
2019-06-01T07:51:02.697Z,99.90
2019-06-01T07:53:32.018Z,99.90
2019-06-01T07:56:01.360Z,99.90
2019-06-01T07:58:30.589Z,99.90
2019-06-01T08:00:59.967Z,99.90
2019-06-01T08:03:32.868Z,99.90
2019-06-01T08:06:00.220Z,99.90
2019-06-01T08:08:29.523Z,99.90
2019-06-01T08:10:59.055Z,99.90
2019-06-01T08:13:32.220Z,99.90
2019-06-01T08:15:59.429Z,99.90
2019-06-01T08:18:30.024Z,99.90
2019-06-01T08:20:59.450Z,99.90
2019-06-01T08:23:28.735Z,99.90
2019-06-01T08:25:58.088Z,99.90
2019-06-01T08:28:29.047Z,99.90
2019-06-01T08:30:58.348Z,99.90
2019-06-01T08:33:30.166Z,99.90
2019-06-01T08:35:58.527Z,99.90
2019-06-01T08:38:27.812Z,99.90
2019-06-01T08:40:57.143Z,99.70
2019-06-01T08:43:27.615Z,99.90
2019-06-01T08:45:56.961Z,98.20
2019-06-01T08:48:27.641Z,97.80
2019-06-01T08:50:56.972Z,97.70
2019-06-01T08:53:26.247Z,97.30
2019-06-01T08:55:55.475Z,96.40
2019-06-01T08:58:24.703Z,95.30
2019-06-01T09:00:53.856Z,94.80
2019-06-01T09:03:23.142Z,95.30
2019-06-01T09:05:52.360Z,93.50
2019-06-01T09:08:23.914Z,95.10
2019-06-01T09:10:52.811Z,95.40
2019-06-01T09:13:22.148Z,96.40
2019-06-01T09:15:51.379Z,96.00
2019-06-01T09:18:20.785Z,94.50
2019-06-01T09:20:50.039Z,93.60
2019-06-01T09:23:19.483Z,94.70
2019-06-01T09:25:48.771Z,93.60
2019-06-01T09:28:17.976Z,92.00
2019-06-01T09:30:47.254Z,92.20
2019-06-01T09:33:16.541Z,90.90
2019-06-01T09:35:55.584Z,90.70
2019-06-01T09:38:17.193Z,90.10
2019-06-01T09:40:46.507Z,89.20
2019-06-01T09:43:15.843Z,91.50
2019-06-01T09:45:45.363Z,88.60
2019-06-01T09:48:14.643Z,85.70
2019-06-01T09:50:43.899Z,86.30
2019-06-01T09:53:13.163Z,86.10
2019-06-01T09:55:42.360Z,87.30
2019-06-01T09:58:11.510Z,81.00
2019-06-01T10:00:43.550Z,79.20
2019-06-01T10:03:11.792Z,74.80
2019-06-01T10:05:41.050Z,79.40
2019-06-01T10:08:10.364Z,79.80
2019-06-01T10:10:39.729Z,73.60
2019-06-01T10:13:08.996Z,75.00
2019-06-01T10:15:38.597Z,79.70
2019-06-01T10:18:07.929Z,79.20
2019-06-01T10:20:37.271Z,76.50
2019-06-01T10:23:06.579Z,70.40
2019-06-01T10:25:36.476Z,72.90
2019-06-01T10:28:05.877Z,71.60
2019-06-01T10:30:35.791Z,68.40
2019-06-01T10:33:05.405Z,69.80
2019-06-01T10:35:34.910Z,69.40
2019-06-01T10:38:04.411Z,67.00
2019-06-01T10:40:33.758Z,62.70
2019-06-01T10:43:03.010Z,65.40
2019-06-01T10:45:33.504Z,64.40
2019-06-01T10:48:03.719Z,68.70
2019-06-01T10:50:34.794Z,69.20
2019-06-01T10:53:03.991Z,65.00
2019-06-01T10:55:34.123Z,64.40
2019-06-01T10:58:03.551Z,66.00
2019-06-01T11:00:39.827Z,64.60
2019-06-01T11:03:04.082Z,64.70
2019-06-01T11:05:37.259Z,63.20
2019-06-01T11:08:06.510Z,61.80
2019-06-01T11:10:36.794Z,61.70
2019-06-01T11:13:06.243Z,63.30
2019-06-01T11:15:35.596Z,65.80
2019-06-01T11:18:04.866Z,64.10
2019-06-01T11:20:35.106Z,65.90
2019-06-01T11:23:04.721Z,66.70
2019-06-01T11:25:34.038Z,66.70
2019-06-01T11:28:03.575Z,67.50
2019-06-01T11:30:33.528Z,66.20
2019-06-01T11:33:03.059Z,65.30
2019-06-01T11:35:32.323Z,64.00
2019-06-01T11:38:01.567Z,63.30
2019-06-01T11:40:30.859Z,61.60
2019-06-01T11:43:00.209Z,61.70
2019-06-01T11:45:29.445Z,60.70
2019-06-01T11:47:58.657Z,59.20
2019-06-01T11:50:28.073Z,59.60
2019-06-01T11:52:57.255Z,59.40
2019-06-01T11:55:26.528Z,60.30
2019-06-01T11:57:55.805Z,59.90
2019-06-01T12:00:25.219Z,59.60
2019-06-01T12:02:54.554Z,61.10
2019-06-01T12:05:23.782Z,62.30
2019-06-01T12:07:53.080Z,62.90
2019-06-01T12:10:22.311Z,62.60
2019-06-01T12:12:51.607Z,61.70
2019-06-01T12:15:20.944Z,61.50
2019-06-01T12:17:50.243Z,62.20
2019-06-01T12:20:19.575Z,59.30
2019-06-01T12:22:48.883Z,58.30
2019-06-01T12:25:18.075Z,57.40
2019-06-01T12:27:48.290Z,58.30
2019-06-01T12:30:17.739Z,57.80
2019-06-01T12:32:48.740Z,58.60
2019-06-01T12:35:18.021Z,58.90
2019-06-01T12:38:04.472Z,59.80
2019-06-01T12:40:18.368Z,59.30
2019-06-01T12:42:47.799Z,57.30
2019-06-01T12:45:22.809Z,57.70
2019-06-01T12:47:55.635Z,57.10
2019-06-01T12:50:20.915Z,57.60
2019-06-01T12:52:50.167Z,56.90
2019-06-01T12:55:19.345Z,56.50
2019-06-01T12:57:49.285Z,55.90
2019-06-01T13:00:19.819Z,57.00
2019-06-01T13:02:59.670Z,57.40
2019-06-01T13:05:20.305Z,56.70
2019-06-01T13:07:58.317Z,57.80
2019-06-01T13:10:20.878Z,57.10
2019-06-01T13:12:52.153Z,56.80
2019-06-01T13:15:21.329Z,57.40
2019-06-01T13:17:51.461Z,57.00
2019-06-01T13:20:21.012Z,55.20
2019-06-01T13:22:50.267Z,55.90
2019-06-01T13:25:19.452Z,55.90
2019-06-01T13:27:48.973Z,56.50
2019-06-01T13:30:18.951Z,56.80
2019-06-01T13:32:48.566Z,56.20
2019-06-01T13:35:18.086Z,57.10
2019-06-01T13:37:48.687Z,56.70
2019-06-01T13:40:18.306Z,56.60
2019-06-01T13:42:47.609Z,55.60
2019-06-01T13:45:17.494Z,56.10
2019-06-01T13:47:47.681Z,55.60
2019-06-01T13:50:17.112Z,55.00
2019-06-01T13:52:46.303Z,55.50
2019-06-01T13:55:15.576Z,55.60
2019-06-01T13:57:46.149Z,53.70
2019-06-01T14:00:29.218Z,52.60
2019-06-01T14:02:50.541Z,52.10
2019-06-01T14:05:17.490Z,53.00
2019-06-01T14:07:47.467Z,53.50
2019-06-01T14:10:18.264Z,53.00
2019-06-01T14:12:47.537Z,53.10
2019-06-01T14:15:17.237Z,53.10
2019-06-01T14:17:46.547Z,52.80
2019-06-01T14:20:15.743Z,53.10
2019-06-01T14:22:45.759Z,53.50
2019-06-01T14:25:15.499Z,55.40
2019-06-01T14:27:46.027Z,54.70
2019-06-01T14:30:15.475Z,55.00
2019-06-01T14:32:44.664Z,54.90
2019-06-01T14:35:13.870Z,54.50
2019-06-01T14:37:43.112Z,54.10
2019-06-01T14:40:12.688Z,54.40
2019-06-01T14:42:42.004Z,52.70
2019-06-01T14:45:11.728Z,53.70
2019-06-01T14:47:41.057Z,54.20
2019-06-01T14:50:11.971Z,53.70
2019-06-01T14:52:41.247Z,53.20
2019-06-01T14:55:10.804Z,53.10
2019-06-01T14:57:40.050Z,52.80
2019-06-01T15:00:11.755Z,53.90
2019-06-01T15:02:40.928Z,54.40
2019-06-01T15:05:10.688Z,53.60
2019-06-01T15:07:40.375Z,52.30
2019-06-01T15:10:10.314Z,52.80
2019-06-01T15:12:39.644Z,52.40
2019-06-01T15:15:09.381Z,51.70
2019-06-01T15:17:38.697Z,51.30
2019-06-01T15:20:08.431Z,51.20
2019-06-01T15:22:37.791Z,52.00
2019-06-01T15:25:07.481Z,51.50
2019-06-01T15:27:36.726Z,51.60
2019-06-01T15:30:06.345Z,51.70
2019-06-01T15:32:35.620Z,52.20
2019-06-01T15:35:05.057Z,52.70
2019-06-01T15:37:34.226Z,52.20
2019-06-01T15:40:03.591Z,52.90
2019-06-01T15:42:32.776Z,51.80
2019-06-01T15:45:02.523Z,50.60
2019-06-01T15:47:31.927Z,50.90
2019-06-01T15:50:02.625Z,51.00
2019-06-01T15:52:32.020Z,51.10
2019-06-01T15:55:02.726Z,52.20
2019-06-01T15:57:32.370Z,51.20
2019-06-01T16:00:02.988Z,51.70
2019-06-01T16:02:32.461Z,52.20
2019-06-01T16:05:01.682Z,52.80
2019-06-01T16:07:30.972Z,53.00
2019-06-01T16:10:05.295Z,53.00
2019-06-01T16:12:31.072Z,54.10
2019-06-01T16:15:00.321Z,54.20
2019-06-01T16:17:29.687Z,54.80
2019-06-01T16:20:00.015Z,55.40
2019-06-01T16:22:29.381Z,54.70
2019-06-01T16:24:58.543Z,55.40
2019-06-01T16:27:27.715Z,55.60
2019-06-01T16:29:56.925Z,54.90
2019-06-01T16:32:26.271Z,55.20
2019-06-01T16:34:56.801Z,54.20
2019-06-01T16:37:26.215Z,54.50
2019-06-01T16:39:59.695Z,55.00
2019-06-01T16:42:26.282Z,55.90
2019-06-01T16:44:55.452Z,55.40
2019-06-01T16:47:24.720Z,54.30
2019-06-01T16:49:55.770Z,54.30
2019-06-01T16:52:25.072Z,54.70
2019-06-01T16:54:54.248Z,54.30
2019-06-01T16:57:23.611Z,54.30
2019-06-01T16:59:53.492Z,54.60
2019-06-01T17:02:22.790Z,54.00
2019-06-01T17:04:52.108Z,55.10
2019-06-01T17:07:21.296Z,54.30
2019-06-01T17:09:50.576Z,53.80
2019-06-01T17:12:19.847Z,54.00
2019-06-01T17:14:49.180Z,54.70
2019-06-01T17:17:18.452Z,53.70
2019-06-01T17:19:47.682Z,52.70
2019-06-01T17:22:17.043Z,53.10
2019-06-01T17:24:46.283Z,54.60
2019-06-01T17:27:15.505Z,55.30
2019-06-01T17:29:44.737Z,55.70
2019-06-01T17:32:24.042Z,54.80
2019-06-01T17:34:45.059Z,55.60
2019-06-01T17:37:14.354Z,56.00
2019-06-01T17:39:43.515Z,56.30
2019-06-01T17:42:12.806Z,56.90
2019-06-01T17:44:42.040Z,56.20
2019-06-01T17:47:12.201Z,56.70
2019-06-01T17:49:41.514Z,57.00
2019-06-01T17:52:11.856Z,57.00
2019-06-01T17:54:41.327Z,57.30
2019-06-01T17:57:11.466Z,57.40
2019-06-01T17:59:40.748Z,57.90
2019-06-01T18:02:10.026Z,57.70
2019-06-01T18:04:39.307Z,58.00
2019-06-01T18:07:08.558Z,58.00
2019-06-01T18:09:37.931Z,58.30
2019-06-01T18:12:08.170Z,59.90
2019-06-01T18:14:37.537Z,61.60
2019-06-01T18:17:06.795Z,62.10
2019-06-01T18:19:36.077Z,61.70
2019-06-01T18:22:06.617Z,62.30
2019-06-01T18:24:36.079Z,62.70
2019-06-01T18:27:06.388Z,62.90
2019-06-01T18:29:38.838Z,63.50
2019-06-01T18:32:07.557Z,63.40
2019-06-01T18:34:36.897Z,63.20
2019-06-01T18:37:07.374Z,63.60
2019-06-01T18:39:36.813Z,64.60
2019-06-01T18:42:06.292Z,65.30
2019-06-01T18:44:35.654Z,65.70
2019-06-01T18:47:05.657Z,66.00
2019-06-01T18:49:35.021Z,66.60
2019-06-01T18:52:04.385Z,67.00
2019-06-01T18:54:33.651Z,67.30
2019-06-01T18:57:10.936Z,67.70
2019-06-01T18:59:33.934Z,68.20
2019-06-01T19:02:04.079Z,68.30
2019-06-01T19:04:33.543Z,68.20
2019-06-01T19:07:02.777Z,68.70
2019-06-01T19:09:32.076Z,69.40
2019-06-01T19:12:01.336Z,69.50
2019-06-01T19:14:30.540Z,70.00
2019-06-01T19:16:59.863Z,70.90
2019-06-01T19:19:29.221Z,71.50
2019-06-01T19:21:58.481Z,72.50
2019-06-01T19:24:27.829Z,73.20
2019-06-01T19:26:57.088Z,73.90
2019-06-01T19:29:26.435Z,75.10
2019-06-01T19:31:55.714Z,76.60
2019-06-01T19:34:25.041Z,76.80
2019-06-01T19:36:54.704Z,77.40
2019-06-01T19:39:24.963Z,78.10
2019-06-01T19:41:54.201Z,78.90
2019-06-01T19:44:23.489Z,79.70
2019-06-01T19:46:52.840Z,80.50
2019-06-01T19:49:22.068Z,81.10
2019-06-01T19:51:51.297Z,81.60
2019-06-01T19:54:20.707Z,82.30
2019-06-01T19:56:49.909Z,82.60
2019-06-01T19:59:19.087Z,83.40
2019-06-01T20:01:48.280Z,84.20
2019-06-01T20:04:18.648Z,84.80
2019-06-01T20:06:48.002Z,85.20
2019-06-01T20:09:17.380Z,85.60
2019-06-01T20:12:00.980Z,86.30
2019-06-01T20:14:19.159Z,86.70
2019-06-01T20:16:48.579Z,87.00
2019-06-01T20:19:17.861Z,87.40
2019-06-01T20:21:47.157Z,87.60
2019-06-01T20:24:17.372Z,88.00
2019-06-01T20:26:49.361Z,88.30
2019-06-01T20:29:17.855Z,88.60
2019-06-01T20:31:47.204Z,88.70
2019-06-01T20:34:16.398Z,89.00
2019-06-01T20:36:45.767Z,89.10
2019-06-01T20:39:16.129Z,89.20
2019-06-01T20:41:45.597Z,89.70
2019-06-01T20:44:14.912Z,90.00
2019-06-01T20:46:44.208Z,90.20
2019-06-01T20:49:14.489Z,90.60
2019-06-01T20:51:43.883Z,90.80
2019-06-01T20:54:13.147Z,91.20
2019-06-01T20:56:42.415Z,91.50
2019-06-01T20:59:11.648Z,91.90
2019-06-01T21:01:40.927Z,92.10
2019-06-01T21:04:10.174Z,92.40
2019-06-01T21:06:39.553Z,92.70
2019-06-01T21:09:09.051Z,92.90
2019-06-01T21:11:38.334Z,93.70
2019-06-01T21:14:07.647Z,93.80
2019-06-01T21:16:36.898Z,94.00
2019-06-01T21:19:06.146Z,94.30
2019-06-01T21:21:35.529Z,94.50
2019-06-01T21:24:04.798Z,94.80
2019-06-01T21:26:34.137Z,95.00
2019-06-01T21:29:03.503Z,95.40
2019-06-01T21:31:32.883Z,95.70
2019-06-01T21:34:02.212Z,96.00
2019-06-01T21:36:31.686Z,96.20
2019-06-01T21:39:00.989Z,96.40
2019-06-01T21:41:30.344Z,97.00
2019-06-01T21:43:59.654Z,96.70
2019-06-01T21:46:28.959Z,96.90
2019-06-01T21:48:58.278Z,97.10
2019-06-01T21:51:27.746Z,97.20
2019-06-01T21:53:57.073Z,97.40
2019-06-01T21:56:26.704Z,97.80
2019-06-01T21:58:56.212Z,97.70
2019-06-01T22:01:25.393Z,97.80
2019-06-01T22:03:54.655Z,97.90
2019-06-01T22:06:25.551Z,97.90
2019-06-01T22:08:54.866Z,98.00
2019-06-01T22:11:25.436Z,98.00
2019-06-01T22:13:54.722Z,98.10
2019-06-01T22:16:23.963Z,98.20
2019-06-01T22:18:54.124Z,98.20
2019-06-01T22:21:23.805Z,98.20
2019-06-01T22:23:53.408Z,98.30
2019-06-01T22:26:23.939Z,98.70
2019-06-01T22:28:53.350Z,98.40
2019-06-01T22:31:22.768Z,98.40
2019-06-01T22:33:52.017Z,98.50
2019-06-01T22:36:22.403Z,98.80
2019-06-01T22:38:51.935Z,99.00
2019-06-01T22:41:21.880Z,99.20
2019-06-01T22:43:51.153Z,99.40
2019-06-01T22:46:20.493Z,99.60
2019-06-01T22:48:49.859Z,99.80
2019-06-01T22:51:19.111Z,99.90
2019-06-01T22:53:48.474Z,99.90
2019-06-01T22:56:17.776Z,99.90
2019-06-01T22:58:47.119Z,99.90
2019-06-01T23:01:16.374Z,99.90
2019-06-01T23:03:45.713Z,99.90
2019-06-01T23:06:14.988Z,99.90
2019-06-01T23:08:44.334Z,99.90
2019-06-01T23:11:13.659Z,99.90
2019-06-01T23:13:52.700Z,99.90
2019-06-01T23:16:13.905Z,99.90
2019-06-01T23:18:43.272Z,99.90
2019-06-01T23:21:12.521Z,99.90
2019-06-01T23:23:41.824Z,99.90
2019-06-01T23:26:11.172Z,99.90
2019-06-01T23:28:40.417Z,99.90
2019-06-01T23:31:09.769Z,99.90
2019-06-01T23:33:39.064Z,99.90
2019-06-01T23:36:08.369Z,99.90
2019-06-01T23:38:37.643Z,99.90
2019-06-01T23:41:06.889Z,99.90
2019-06-01T23:43:36.248Z,99.90
2019-06-01T23:46:05.497Z,99.90
2019-06-01T23:48:34.850Z,99.90
2019-06-01T23:51:04.428Z,99.90
2019-06-01T23:53:33.886Z,99.90
2019-06-01T23:56:03.472Z,99.90
2019-06-01T23:58:32.689Z,99.90
